Time;durP1;ratioP1;P1;durP2;ratioP2;P2;SDS_P1;SDS_P2;PMS_P1;PMS_P2;Temp;Humidity;BMP_temperature;BMP_pressure;BME280_temperature;BME280_humidity;BME280_pressure;Samples;Min_cycle;Max_cycle;Signal;HPM_P1;HPM_P2
2021/05/16 00:02:25;;;;;;;1.57;1.12;;;;;;;11.18;73.41;99159.22;1706695;82;21146;-55
2021/05/16 00:04:51;;;;;;;4.00;1.20;;;;;;;11.19;73.63;99156.92;1709102;82;21068;-55
2021/05/16 00:07:18;;;;;;;1.85;1.65;;;;;;;11.19;73.67;99160.09;1708229;82;21636;-54
2021/05/16 00:12:12;;;;;;;1.77;1.47;;;;;;;11.19;73.67;99159.61;1792844;78;22614;-54
2021/05/16 00:14:41;;;;;;;1.45;1.00;;;;;;;11.13;73.58;99164.03;1768095;79;21568;-54
2021/05/16 00:17:09;;;;;;;1.75;1.05;;;;;;;11.14;73.57;99171.64;1709386;81;21025;-55
2021/05/16 00:19:37;;;;;;;1.50;1.10;;;;;;;11.12;73.58;99173.07;1709310;81;21047;-54
2021/05/16 00:22:03;;;;;;;2.30;1.10;;;;;;;11.09;73.68;99172.37;1738637;81;21731;-54
2021/05/16 00:24:30;;;;;;;1.57;1.15;;;;;;;11.06;73.71;99173.41;1736316;81;21115;-54
2021/05/16 00:26:56;;;;;;;2.42;1.00;;;;;;;11.07;73.77;99173.80;1738267;81;21007;-54
2021/05/16 00:29:23;;;;;;;1.60;1.10;;;;;;;11.09;73.77;99173.72;1730768;81;21086;-55
2021/05/16 00:31:49;;;;;;;1.40;1.30;;;;;;;11.09;73.77;99174.59;1735099;81;21333;-55
2021/05/16 00:34:15;;;;;;;2.37;1.55;;;;;;;11.10;73.81;99173.62;1731881;80;21460;-54
2021/05/16 00:36:42;;;;;;;3.87;1.42;;;;;;;11.10;73.78;99177.67;1713811;81;21534;-54
2021/05/16 00:39:08;;;;;;;3.65;1.75;;;;;;;11.10;73.81;99170.94;1735788;81;20992;-55
2021/05/16 00:41:35;;;;;;;3.75;1.82;;;;;;;11.09;73.72;99173.23;1732689;81;21455;-54
2021/05/16 00:44:02;;;;;;;1.40;1.30;;;;;;;11.04;73.84;99169.09;1700037;82;20976;-54
2021/05/16 00:46:29;;;;;;;2.35;1.57;;;;;;;11.02;73.84;99177.73;1713369;82;20956;-54
2021/05/16 00:48:55;;;;;;;1.55;1.40;;;;;;;10.99;73.89;99183.69;1679895;83;21015;-54
2021/05/16 00:51:22;;;;;;;4.47;1.10;;;;;;;10.98;73.70;99180.59;1686537;82;20980;-54
2021/05/16 00:53:49;;;;;;;1.37;1.00;;;;;;;10.95;73.71;99179.45;1716690;81;21026;-54
2021/05/16 00:56:16;;;;;;;2.15;1.22;;;;;;;10.95;73.83;99182.62;1717195;81;21429;-54
2021/05/16 00:58:42;;;;;;;1.60;1.50;;;;;;;10.95;73.81;99178.11;1683374;83;20944;-54
2021/05/16 01:01:10;;;;;;;1.45;1.20;;;;;;;10.94;73.80;99180.88;1699436;82;20964;-54
2021/05/16 01:03:40;;;;;;;1.80;1.40;;;;;;;10.95;73.68;99182.62;1699214;82;20908;-54
2021/05/16 01:06:06;;;;;;;2.30;1.73;;;;;;;10.92;73.38;99180.97;1697716;82;21053;-54
2021/05/16 01:08:34;;;;;;;3.37;1.13;;;;;;;10.83;73.47;99185.55;1699662;82;21619;-54
2021/05/16 01:11:01;;;;;;;1.72;1.62;;;;;;;10.77;73.60;99181.88;1693187;82;21474;-54
2021/05/16 01:13:28;;;;;;;1.27;1.10;;;;;;;10.74;73.63;99183.86;1668201;84;20948;-54
2021/05/16 01:15:55;;;;;;;4.20;1.27;;;;;;;10.74;73.71;99183.86;1711861;81;20940;-54
2021/05/16 01:18:22;;;;;;;3.58;1.32;;;;;;;10.72;73.56;99176.38;1714689;81;21457;-54
2021/05/16 01:20:50;;;;;;;6.43;1.90;;;;;;;10.68;73.61;99176.14;1716216;81;21623;-54
2021/05/16 01:23:25;;;;;;;4.50;1.73;;;;;;;10.62;73.77;99167.95;1711253;81;20931;-54
2021/05/16 01:25:51;;;;;;;5.22;1.37;;;;;;;10.54;73.98;99178.30;1712366;82;21562;-54
2021/05/16 01:28:18;;;;;;;3.50;2.17;;;;;;;10.52;74.16;99187.80;1711562;81;21306;-54
2021/05/16 01:30:45;;;;;;;3.13;2.20;;;;;;;10.52;74.23;99186.45;1714144;81;21351;-54
2021/05/16 01:33:12;;;;;;;2.65;2.08;;;;;;;10.54;74.13;99183.20;1716517;81;21045;-54
2021/05/16 01:35:38;;;;;;;1.75;1.65;;;;;;;10.55;74.13;99190.30;1710821;81;21151;-54
2021/05/16 01:38:05;;;;;;;3.47;2.27;;;;;;;10.55;73.90;99184.04;1710827;81;21138;-54
2021/05/16 01:40:31;;;;;;;1.92;1.62;;;;;;;10.49;73.85;99179.89;1714720;81;21127;-54
2021/05/16 01:42:59;;;;;;;3.40;1.67;;;;;;;10.45;73.84;99194.96;1711913;81;21659;-53
2021/05/16 01:45:28;;;;;;;1.30;1.20;;;;;;;10.41;73.53;99192.91;1713244;81;21441;-53
2021/05/16 01:47:56;;;;;;;1.50;1.30;;;;;;;10.38;73.55;99186.34;1712885;81;21513;-54
2021/05/16 01:50:28;;;;;;;2.17;1.27;;;;;;;10.37;73.68;99198.56;1711752;81;21123;-50
2021/05/16 01:52:55;;;;;;;1.60;1.30;;;;;;;10.38;73.70;99196.27;1711898;81;21494;-54
2021/05/16 01:55:21;;;;;;;2.40;1.60;;;;;;;10.38;73.64;99197.10;1712884;81;22312;-52
2021/05/16 01:57:50;;;;;;;1.95;1.75;;;;;;;10.37;73.72;99202.13;1708458;81;21481;-52
2021/05/16 02:00:31;;;;;;;2.43;1.77;;;;;;;10.37;73.69;99200.78;1715756;81;21106;-51
2021/05/16 02:02:58;;;;;;;1.93;1.77;;;;;;;10.37;73.67;99202.59;1711162;81;21470;-54
2021/05/16 02:05:27;;;;;;;3.77;1.80;;;;;;;10.35;73.61;99202.67;1708698;81;21162;-50
2021/05/16 02:07:55;;;;;;;3.63;1.83;;;;;;;10.34;73.53;99202.28;1710172;81;21126;-52
2021/05/16 02:10:22;;;;;;;2.17;1.50;;;;;;;10.33;73.43;99212.64;1717346;81;21926;-51
2021/05/16 02:12:51;;;;;;;2.93;1.90;;;;;;;10.33;73.43;99217.16;1713863;81;21099;-53
2021/05/16 02:15:18;;;;;;;2.43;1.20;;;;;;;10.32;73.26;99216.28;1735612;80;21186;-51
2021/05/16 02:17:44;;;;;;;3.00;1.30;;;;;;;10.32;73.31;99218.98;1739623;80;21601;-52
2021/05/16 02:20:15;;;;;;;3.83;1.60;;;;;;;10.31;73.24;99219.92;1739060;81;21632;-50
2021/05/16 02:22:41;;;;;;;2.90;1.63;;;;;;;10.26;73.12;99216.63;1739319;80;22747;-51
2021/05/16 02:25:10;;;;;;;4.60;1.93;;;;;;;10.14;73.17;99210.54;1739566;80;21060;-52
2021/05/16 02:27:39;;;;;;;2.93;2.00;;;;;;;10.07;73.37;99222.59;1742247;80;21063;-51
2021/05/16 02:30:09;;;;;;;3.20;2.43;;;;;;;10.02;73.35;99222.86;1740042;80;21079;-53
2021/05/16 02:32:38;;;;;;;2.20;1.77;;;;;;;10.01;73.29;99225.63;1741513;80;22253;-52
2021/05/16 02:35:09;;;;;;;2.37;1.57;;;;;;;9.99;73.33;99231.55;1742125;80;21814;-54
2021/05/16 02:37:38;;;;;;;1.40;1.30;;;;;;;9.97;73.43;99226.73;1738332;80;21134;-50
2021/05/16 02:40:06;;;;;;;3.03;1.20;;;;;;;10.01;73.56;99239.06;1739133;80;21041;-52
2021/05/16 02:42:33;;;;;;;2.93;1.40;;;;;;;10.02;73.69;99241.68;1742235;80;20941;-51
2021/05/16 02:45:00;;;;;;;1.40;1.07;;;;;;;10.06;73.77;99236.51;1739700;80;21122;-53
2021/05/16 02:47:27;;;;;;;1.93;1.27;;;;;;;10.10;73.84;99231.37;1740417;81;21162;-51
2021/05/16 02:49:53;;;;;;;2.80;1.30;;;;;;;10.16;73.84;99241.78;1736219;80;21122;-53
2021/05/16 02:52:20;;;;;;;1.90;1.37;;;;;;;10.20;73.83;99233.99;1736216;80;21031;-50
2021/05/16 02:54:48;;;;;;;1.97;1.77;;;;;;;10.25;73.76;99232.38;1711220;80;21147;-54
2021/05/16 02:57:14;;;;;;;1.70;1.60;;;;;;;10.27;73.73;99234.52;1739275;80;21092;-53
2021/05/16 02:59:41;;;;;;;3.55;1.72;;;;;;;10.24;73.75;99228.81;1737182;81;21199;-53
2021/05/16 03:02:09;;;;;;;1.30;1.20;;;;;;;10.22;73.88;99234.75;1737099;80;21113;-53
2021/05/16 03:04:36;;;;;;;2.67;1.73;;;;;;;10.24;74.13;99231.98;1739327;80;21131;-53
2021/05/16 03:07:03;;;;;;;2.23;1.40;;;;;;;10.23;74.33;99217.66;1739139;80;21097;-51
2021/05/16 03:09:32;;;;;;;4.43;1.50;;;;;;;10.17;74.39;99216.66;1739679;80;21200;-52
2021/05/16 03:11:58;;;;;;;2.90;1.77;;;;;;;10.14;74.62;99226.20;1736648;81;21100;-51
2021/05/16 03:14:25;;;;;;;1.60;1.27;;;;;;;10.18;74.86;99235.02;1732902;81;21611;-49
2021/05/16 03:16:54;;;;;;;2.47;1.80;;;;;;;10.23;75.12;99233.80;1735222;80;20972;-50
2021/05/16 03:19:21;;;;;;;2.30;2.10;;;;;;;10.30;75.36;99235.67;1710145;81;21019;-49
2021/05/16 03:21:47;;;;;;;2.50;2.30;;;;;;;10.38;75.55;99233.42;1731773;80;21615;-53
2021/05/16 03:24:14;;;;;;;6.15;3.42;;;;;;;10.44;75.69;99245.69;1731553;81;21090;-53
2021/05/16 03:26:41;;;;;;;2.45;2.15;;;;;;;10.51;75.82;99247.08;1732386;81;21617;-50
2021/05/16 03:29:10;;;;;;;2.20;2.00;;;;;;;10.59;76.00;99259.15;1731542;80;21095;-51
2021/05/16 03:31:37;;;;;;;2.77;2.58;;;;;;;10.69;76.20;99261.33;1731100;80;21126;-54
2021/05/16 03:34:04;;;;;;;5.90;5.37;;;;;;;10.78;76.46;99266.19;1732218;81;21095;-53
2021/05/16 03:36:32;;;;;;;10.63;5.80;;;;;;;10.89;76.97;99269.13;1732633;81;20984;-53
2021/05/16 03:38:59;;;;;;;7.45;6.72;;;;;;;11.01;77.49;99272.47;1733293;81;20909;-50
2021/05/16 03:41:25;;;;;;;7.10;6.53;;;;;;;11.14;77.90;99274.86;1734092;80;21136;-52
2021/05/16 03:43:52;;;;;;;7.45;5.87;;;;;;;11.30;78.17;99268.09;1734439;81;20968;-51
2021/05/16 03:46:18;;;;;;;6.42;5.92;;;;;;;11.44;78.44;99263.23;1733383;81;21412;-52
2021/05/16 03:48:45;;;;;;;5.17;4.15;;;;;;;11.58;78.68;99262.78;1733934;81;21401;-52
2021/05/16 03:51:12;;;;;;;6.83;5.40;;;;;;;11.70;78.70;99263.88;1732088;81;21561;-53
2021/05/16 03:53:38;;;;;;;5.17;4.85;;;;;;;11.81;78.62;99259.23;1735401;81;20953;-54
2021/05/16 03:56:07;;;;;;;5.60;3.55;;;;;;;11.91;78.62;99258.55;1736086;81;21514;-51
2021/05/16 03:58:33;;;;;;;5.83;5.33;;;;;;;12.01;78.61;99261.07;1735710;80;21595;-52
2021/05/16 04:01:00;;;;;;;5.72;4.00;;;;;;;12.14;78.59;99257.15;1734406;81;20975;-50
2021/05/16 04:03:27;;;;;;;2.30;2.10;;;;;;;12.29;78.89;99256.17;1733184;81;21315;-51
2021/05/16 04:05:53;;;;;;;4.53;3.98;;;;;;;12.44;78.87;99259.73;1734669;81;21008;-51
2021/05/16 04:08:19;;;;;;;4.20;3.90;;;;;;;12.59;78.82;99261.95;1735930;81;21467;-51
2021/05/16 04:10:46;;;;;;;10.03;5.15;;;;;;;12.73;78.64;99253.34;1738185;81;21556;-51
2021/05/16 04:13:12;;;;;;;5.87;5.47;;;;;;;12.87;78.41;99257.34;1740077;81;21434;-51
2021/05/16 04:15:38;;;;;;;6.00;5.50;;;;;;;12.99;78.16;99257.52;1746394;81;20964;-50
2021/05/16 04:18:05;;;;;;;7.22;6.72;;;;;;;13.16;77.88;99250.07;1741433;80;20943;-50
2021/05/16 04:20:32;;;;;;;7.50;6.80;;;;;;;13.31;77.53;99252.22;1741576;80;21286;-52
2021/05/16 04:22:59;;;;;;;7.80;6.50;;;;;;;13.46;77.28;99250.31;1745799;80;20948;-52
2021/05/16 04:25:27;;;;;;;5.95;5.50;;;;;;;13.61;76.86;99248.77;1742953;80;20980;-50
2021/05/16 04:27:55;;;;;;;5.92;5.53;;;;;;;13.78;76.41;99246.78;1743105;81;21020;-53
2021/05/16 04:30:22;;;;;;;6.67;6.12;;;;;;;13.90;75.96;99241.36;1734177;80;21103;-52
2021/05/16 04:32:48;;;;;;;7.28;6.58;;;;;;;14.03;75.48;99240.03;1737764;81;21071;-54
2021/05/16 04:35:15;;;;;;;7.25;6.65;;;;;;;14.17;75.05;99248.52;1741990;80;22213;-54
2021/05/16 04:37:41;;;;;;;8.45;7.62;;;;;;;14.28;74.64;99239.16;1735160;81;21083;-54
2021/05/16 04:40:08;;;;;;;7.58;6.83;;;;;;;14.40;74.40;99239.64;1740575;80;21024;-54
2021/05/16 04:42:34;;;;;;;7.45;6.85;;;;;;;14.51;74.14;99231.63;1738145;80;21131;-53
2021/05/16 04:45:02;;;;;;;6.37;5.87;;;;;;;14.64;73.88;99238.35;1739787;80;21071;-52
2021/05/16 04:47:28;;;;;;;7.35;6.53;;;;;;;14.74;73.63;99232.16;1737760;80;21154;-53
2021/05/16 04:49:55;;;;;;;7.00;6.30;;;;;;;14.86;73.29;99234.95;1739766;80;21150;-54
2021/05/16 04:52:21;;;;;;;6.67;6.17;;;;;;;14.98;73.01;99228.60;1739290;80;21119;-52
2021/05/16 04:54:47;;;;;;;7.28;6.78;;;;;;;15.11;72.74;99233.02;1737447;81;21654;-53
2021/05/16 04:57:14;;;;;;;8.03;7.35;;;;;;;15.25;72.49;99227.89;1736131;80;21744;-53
2021/05/16 04:59:41;;;;;;;8.13;7.50;;;;;;;15.38;72.32;99226.49;1736759;80;21490;-52
2021/05/16 05:02:07;;;;;;;10.13;8.75;;;;;;;15.50;72.03;99222.33;1735099;80;21114;-53
2021/05/16 05:04:36;;;;;;;9.93;9.03;;;;;;;15.62;71.75;99223.77;1739259;81;21123;-52
2021/05/16 05:07:06;;;;;;;8.83;8.13;;;;;;;15.86;71.30;99215.08;1740773;80;21193;-50
2021/05/16 05:09:34;;;;;;;8.95;8.25;;;;;;;15.86;71.30;99215.08;1739199;81;21620;-54
2021/05/16 05:12:00;;;;;;;8.88;8.05;;;;;;;15.99;70.38;99205.49;1738685;80;21567;-55
2021/05/16 05:14:28;;;;;;;9.58;8.58;;;;;;;16.08;70.34;99205.59;1745615;80;21154;-52
2021/05/16 05:16:55;;;;;;;9.53;8.68;;;;;;;16.17;70.02;99200.80;1743585;80;22477;-51
2021/05/16 05:19:22;;;;;;;12.50;9.45;;;;;;;16.27;69.54;99197.72;1740039;80;21600;-53
2021/05/16 05:21:48;;;;;;;11.50;10.50;;;;;;;16.36;69.19;99197.48;1743592;80;21633;-53
2021/05/16 05:24:14;;;;;;;10.18;9.28;;;;;;;16.45;68.82;99196.73;1744247;80;21413;-52
2021/05/16 05:26:43;;;;;;;10.25;8.65;;;;;;;16.54;68.77;99197.34;1741887;80;21159;-53
2021/05/16 05:29:09;;;;;;;9.60;8.58;;;;;;;16.63;68.58;99193.05;1744514;80;21171;-52
2021/05/16 05:31:37;;;;;;;9.93;7.62;;;;;;;16.74;68.42;99188.10;1745437;80;21082;-53
2021/05/16 05:34:03;;;;;;;7.53;6.67;;;;;;;16.85;67.74;99189.42;1743702;80;21108;-51
2021/05/16 05:36:30;;;;;;;8.75;8.00;;;;;;;16.92;67.44;99196.97;1743233;80;22247;-52
2021/05/16 05:38:57;;;;;;;9.10;8.38;;;;;;;17.04;67.11;99199.14;1742445;80;22306;-51
2021/05/16 05:41:23;;;;;;;8.08;7.45;;;;;;;17.15;66.75;99197.75;1744120;81;22410;-53
2021/05/16 05:43:50;;;;;;;9.80;9.10;;;;;;;17.25;66.05;99193.77;1742175;80;22557;-51
2021/05/16 05:46:16;;;;;;;9.20;8.43;;;;;;;17.31;65.45;99198.68;1743045;80;21075;-50
2021/05/16 05:48:43;;;;;;;6.83;6.28;;;;;;;17.37;65.27;99201.73;1741226;80;21079;-53
2021/05/16 05:51:09;;;;;;;7.28;6.65;;;;;;;17.44;65.15;99202.60;1744555;80;21134;-53
2021/05/16 05:53:36;;;;;;;5.37;4.62;;;;;;;17.48;64.57;99201.33;1743850;80;21162;-54
2021/05/16 05:56:03;;;;;;;5.37;4.33;;;;;;;17.49;63.92;99198.48;1746145;80;21164;-51
2021/05/16 05:58:33;;;;;;;4.03;3.83;;;;;;;17.53;63.70;99194.48;1745699;80;21074;-51
2021/05/16 06:00:58;;;;;;;4.42;4.22;;;;;;;17.60;63.25;99196.22;1740863;80;21106;-51
2021/05/16 06:03:24;;;;;;;3.72;2.98;;;;;;;17.68;63.21;99201.39;1743417;80;21081;-52
2021/05/16 06:05:51;;;;;;;3.22;2.47;;;;;;;17.75;62.86;99199.87;1739957;80;21569;-54
2021/05/16 06:08:17;;;;;;;2.58;2.37;;;;;;;17.83;62.77;99193.75;1743870;80;21095;-52
2021/05/16 06:10:43;;;;;;;3.72;2.70;;;;;;;17.91;62.51;99202.61;1745652;80;21126;-53
2021/05/16 06:13:10;;;;;;;2.10;2.00;;;;;;;17.98;61.79;99201.94;1744012;80;21663;-53
2021/05/16 06:15:36;;;;;;;2.17;2.08;;;;;;;18.03;61.57;99200.20;1736509;80;21478;-55
2021/05/16 06:18:02;;;;;;;2.00;1.90;;;;;;;18.10;60.84;99198.66;1740659;80;21051;-53
2021/05/16 06:20:29;;;;;;;1.90;1.80;;;;;;;18.17;60.52;99202.56;1738490;80;21048;-53
2021/05/16 06:22:56;;;;;;;2.35;2.20;;;;;;;18.24;60.77;99206.96;1743543;80;21047;-55
2021/05/16 06:25:22;;;;;;;3.77;1.50;;;;;;;18.32;60.83;99203.92;1742579;80;21165;-51
2021/05/16 06:27:48;;;;;;;1.75;1.65;;;;;;;18.42;60.33;99206.70;1739801;80;21128;-55
2021/05/16 06:30:17;;;;;;;2.00;1.85;;;;;;;18.50;60.42;99200.06;1739578;80;21152;-54
2021/05/16 06:32:44;;;;;;;1.60;1.20;;;;;;;18.58;60.47;99203.00;1743432;81;21047;-53
2021/05/16 06:35:10;;;;;;;1.98;1.40;;;;;;;18.65;59.64;99204.16;1737482;80;21088;-53
2021/05/16 06:37:38;;;;;;;2.98;0.90;;;;;;;18.73;59.70;99207.06;1741610;80;21843;-54
2021/05/16 06:40:06;;;;;;;1.42;1.20;;;;;;;18.82;59.49;99205.36;1734847;80;21211;-56
2021/05/16 06:42:33;;;;;;;1.20;0.70;;;;;;;18.92;59.03;99199.94;1741255;80;20980;-56
2021/05/16 06:44:59;;;;;;;1.47;0.75;;;;;;;19.01;58.65;99203.19;1741759;81;20990;-53
2021/05/16 06:47:26;;;;;;;5.28;0.78;;;;;;;19.10;57.83;99203.71;1741251;81;20928;-54
2021/05/16 06:49:53;;;;;;;1.00;0.80;;;;;;;19.18;57.03;99201.14;1742697;80;20964;-53
2021/05/16 06:52:20;;;;;;;2.17;0.75;;;;;;;19.25;56.72;99200.92;1739967;80;20908;-54
2021/05/16 06:54:48;;;;;;;0.80;0.80;;;;;;;19.31;56.34;99198.16;1741346;80;20996;-55
2021/05/16 06:57:16;;;;;;;3.08;0.70;;;;;;;19.38;56.58;99196.08;1741907;80;20949;-53
2021/05/16 06:59:42;;;;;;;1.98;0.55;;;;;;;19.45;56.42;99191.77;1741832;80;20978;-54
2021/05/16 07:02:08;;;;;;;0.75;0.70;;;;;;;19.53;56.00;99200.63;1740302;81;21028;-54
2021/05/16 07:04:35;;;;;;;2.25;0.60;;;;;;;19.61;55.68;99195.30;1742941;80;20980;-55
2021/05/16 07:07:01;;;;;;;0.53;0.53;;;;;;;19.71;55.48;99193.94;1740435;81;21510;-54
2021/05/16 07:09:28;;;;;;;0.50;0.50;;;;;;;19.79;55.18;99194.08;1741363;80;21470;-54
2021/05/16 07:11:55;;;;;;;0.60;0.50;;;;;;;19.87;54.91;99190.97;1738895;80;21840;-53
2021/05/16 07:14:21;;;;;;;2.08;0.50;;;;;;;19.94;53.72;99192.10;1738174;80;21466;-52
2021/05/16 07:16:48;;;;;;;0.80;0.70;;;;;;;20.01;53.58;99193.23;1735128;80;21466;-57
2021/05/16 07:19:14;;;;;;;0.47;0.47;;;;;;;20.07;53.93;99200.00;1735885;80;21478;-54
2021/05/16 07:21:41;;;;;;;0.42;0.42;;;;;;;20.15;53.59;99200.13;1734152;81;21064;-54
2021/05/16 07:24:08;;;;;;;0.50;0.50;;;;;;;20.23;52.40;99207.58;1733873;80;22510;-52
2021/05/16 07:26:34;;;;;;;1.12;0.60;;;;;;;20.32;52.52;99210.79;1734822;81;21086;-52
2021/05/16 07:30:51;;;;;;;0.50;0.50;;;;;;;20.51;52.50;99218.94;1748113;78;28143;-54
2021/05/16 07:33:17;;;;;;;1.00;0.60;;;;;;;20.56;52.02;99218.00;1721138;80;22217;-54
2021/05/16 07:35:44;;;;;;;0.60;0.60;;;;;;;20.62;51.20;99213.79;1725652;80;21020;-54
2021/05/16 07:38:10;;;;;;;0.40;0.40;;;;;;;20.68;51.38;99214.55;1725260;80;21052;-53
2021/05/16 07:40:39;;;;;;;0.57;0.50;;;;;;;20.75;51.55;99210.22;1735245;80;21000;-53
2021/05/16 07:43:07;;;;;;;0.60;0.40;;;;;;;20.84;51.10;99196.97;1725612;80;21660;-52
2021/05/16 07:45:34;;;;;;;1.57;0.40;;;;;;;20.95;50.45;99193.17;1723647;80;22201;-54
2021/05/16 07:48:01;;;;;;;0.50;0.50;;;;;;;21.00;49.99;99188.13;1725467;80;21557;-52
2021/05/16 07:50:27;;;;;;;0.50;0.40;;;;;;;21.06;49.66;99184.77;1728689;80;20992;-51
2021/05/16 07:52:54;;;;;;;0.50;0.40;;;;;;;21.07;48.94;99190.09;1727684;80;21365;-51
2021/05/16 07:55:20;;;;;;;0.47;0.40;;;;;;;21.07;49.10;99183.25;1722768;80;20941;-52
2021/05/16 07:57:48;;;;;;;0.40;0.40;;;;;;;21.09;48.79;99190.80;1725328;80;20944;-52
2021/05/16 08:00:15;;;;;;;0.68;0.50;;;;;;;21.14;48.69;99188.95;1724343;80;21071;-51
2021/05/16 08:02:43;;;;;;;1.92;0.40;;;;;;;21.21;48.76;99184.61;1722885;80;21054;-51
2021/05/16 08:05:11;;;;;;;0.40;0.30;;;;;;;21.27;48.82;99179.02;1724184;80;21106;-53
2021/05/16 08:07:38;;;;;;;0.40;0.30;;;;;;;21.35;48.08;99177.22;1729068;80;22380;-55
2021/05/16 08:10:06;;;;;;;0.30;0.30;;;;;;;21.42;47.46;99178.34;1722528;80;21103;-52
2021/05/16 08:12:33;;;;;;;2.20;0.50;;;;;;;21.51;46.78;99176.03;1721809;80;21933;-56
2021/05/16 08:15:00;;;;;;;0.28;0.20;;;;;;;21.57;46.49;99174.53;1721586;80;21260;-54
2021/05/16 08:17:26;;;;;;;0.30;0.30;;;;;;;21.62;46.35;99174.91;1726246;80;21029;-54
2021/05/16 08:19:54;;;;;;;0.40;0.30;;;;;;;21.68;45.41;99170.20;1721832;80;21230;-57
2021/05/16 08:22:20;;;;;;;0.50;0.20;;;;;;;21.73;45.61;99168.33;1725628;80;21103;-55
2021/05/16 08:24:47;;;;;;;0.30;0.30;;;;;;;21.78;45.00;99175.05;1720767;80;22096;-54
2021/05/16 08:27:13;;;;;;;0.47;0.23;;;;;;;21.80;44.40;99174.89;1724540;80;20960;-53
2021/05/16 08:29:40;;;;;;;0.20;0.20;;;;;;;21.79;44.43;99170.42;1664910;83;20903;-56
2021/05/16 08:32:09;;;;;;;0.20;0.20;;;;;;;21.82;45.53;99179.70;1668757;83;21769;-53
2021/05/16 08:34:35;;;;;;;1.85;0.30;;;;;;;21.90;44.43;99178.41;1673148;83;21126;-57
2021/05/16 08:37:04;;;;;;;0.72;0.30;;;;;;;21.98;43.61;99179.87;1676795;83;21873;-54
2021/05/16 08:39:30;;;;;;;0.62;0.30;;;;;;;22.04;44.14;99173.73;1671400;83;20946;-52
2021/05/16 08:41:57;;;;;;;0.40;0.37;;;;;;;22.10;43.81;99175.86;1703271;81;20905;-53
2021/05/16 08:44:23;;;;;;;0.95;0.30;;;;;;;22.16;44.12;99174.34;1681174;82;21496;-54
2021/05/16 08:46:51;;;;;;;0.40;0.30;;;;;;;22.23;44.30;99163.07;1680516;82;22238;-54
2021/05/16 08:49:18;;;;;;;0.40;0.40;;;;;;;22.30;43.96;99167.39;1680350;82;21713;-54
2021/05/16 08:51:45;;;;;;;0.30;0.30;;;;;;;22.35;44.29;99163.67;1683387;82;20991;-53
2021/05/16 08:54:18;;;;;;;0.30;0.30;;;;;;;22.41;44.50;99156.15;1724369;80;21047;-54
2021/05/16 08:56:48;;;;;;;0.50;0.30;;;;;;;22.48;44.90;99156.70;1726872;80;20988;-56
2021/05/16 08:59:14;;;;;;;1.67;0.30;;;;;;;22.54;44.91;99161.52;1673319;83;21095;-55
2021/05/16 09:01:50;;;;;;;1.10;0.30;;;;;;;22.63;43.30;99154.19;1672205;83;21486;-57
2021/05/16 09:04:33;;;;;;;0.30;0.20;;;;;;;22.63;41.98;99150.94;1671755;83;21139;-57
2021/05/16 09:06:58;;;;;;;0.30;0.30;;;;;;;22.60;42.89;99147.17;1674988;83;21135;-54
2021/05/16 09:09:33;;;;;;;0.30;0.30;;;;;;;22.64;43.26;99149.91;1675373;83;21188;-54
2021/05/16 09:12:07;;;;;;;0.30;0.30;;;;;;;22.70;42.78;99142.93;1677480;83;20960;-54
2021/05/16 09:15:00;;;;;;;0.35;0.30;;;;;;;22.81;42.91;99146.75;1677894;83;21108;-54
2021/05/16 09:17:51;;;;;;;0.40;0.30;;;;;;;22.81;42.91;99146.75;1679973;83;21023;-54
2021/05/16 09:20:23;;;;;;;0.50;0.30;;;;;;;22.89;42.81;99142.66;1713860;82;21118;-57
2021/05/16 09:22:49;;;;;;;0.55;0.42;;;;;;;22.99;43.06;99137.89;1714478;82;21071;-57
2021/05/16 09:25:29;;;;;;;0.20;0.20;;;;;;;23.08;43.00;99135.17;1718508;82;21107;-54
2021/05/16 09:28:12;;;;;;;3.05;0.30;;;;;;;23.13;42.14;99124.05;1715973;82;21175;-56
2021/05/16 09:30:39;;;;;;;2.83;0.35;;;;;;;23.20;41.59;99129.20;1714718;82;21102;-55
2021/05/16 09:33:13;;;;;;;0.45;0.20;;;;;;;23.28;41.09;99132.47;1711168;82;21123;-55
2021/05/16 09:35:47;;;;;;;0.33;0.20;;;;;;;23.34;41.06;99132.64;1714974;82;20996;-56
2021/05/16 09:38:20;;;;;;;;;;;;;;;23.40;41.79;99123.72;1719733;81;21324;-57
2021/05/16 09:40:50;;;;;;;0.55;0.20;;;;;;;23.42;41.33;99132.30;1717013;82;20613;-54
2021/05/16 09:43:27;;;;;;;0.42;0.20;;;;;;;23.43;41.18;99130.77;1693300;82;21456;-55
2021/05/16 09:46:06;;;;;;;2.00;0.25;;;;;;;23.45;40.94;99132.83;1665027;84;20939;-57
2021/05/16 09:48:44;;;;;;;0.30;0.20;;;;;;;23.47;40.60;99124.42;1660273;84;21062;-53
2021/05/16 09:51:24;;;;;;;0.20;0.20;;;;;;;23.47;41.13;99129.41;1705670;82;21158;-55
2021/05/16 09:53:58;;;;;;;1.10;0.33;;;;;;;23.54;41.23;99125.48;1687647;82;21504;-55
2021/05/16 09:56:35;;;;;;;0.60;0.20;;;;;;;23.59;40.40;99123.93;1707413;82;21508;-56
2021/05/16 09:59:09;;;;;;;1.87;0.20;;;;;;;23.64;40.66;99124.81;1678914;83;21073;-55
2021/05/16 10:01:37;;;;;;;0.23;0.20;;;;;;;23.67;40.63;99123.07;1680297;83;21145;-53
2021/05/16 10:04:04;;;;;;;0.20;0.20;;;;;;;23.73;40.69;99115.53;1682548;83;21165;-57
2021/05/16 10:06:31;;;;;;;0.68;0.20;;;;;;;23.79;40.20;99117.58;1682173;83;21631;-55
2021/05/16 10:08:58;;;;;;;0.30;0.30;;;;;;;23.86;39.55;99103.48;1682232;83;21114;-56
2021/05/16 10:11:31;;;;;;;0.60;0.40;;;;;;;23.89;40.15;99108.64;1681712;83;21563;-56
2021/05/16 10:14:11;;;;;;;0.30;0.30;;;;;;;23.93;40.47;99107.25;1681254;83;21459;-55
2021/05/16 10:16:49;;;;;;;0.20;0.20;;;;;;;23.96;40.27;99107.42;1679584;83;21104;-57
2021/05/16 10:19:23;;;;;;;1.45;0.20;;;;;;;23.98;40.25;99102.10;1693527;83;21083;-57
2021/05/16 10:22:15;;;;;;;1.20;0.17;;;;;;;24.04;39.93;99101.91;1693304;83;20906;-54
2021/05/16 10:24:49;;;;;;;0.50;0.20;;;;;;;24.07;39.42;99104.31;1670857;83;21315;-55
2021/05/16 10:27:27;;;;;;;0.57;0.20;;;;;;;24.01;38.52;99105.86;1697721;82;26375;-56
2021/05/16 10:30:05;;;;;;;0.20;0.15;;;;;;;23.90;39.58;99111.73;1696840;82;20942;-54
2021/05/16 10:32:38;;;;;;;2.30;0.30;;;;;;;23.85;39.74;99105.88;1695617;82;21420;-56
2021/05/16 10:35:08;;;;;;;2.08;1.92;;;;;;;23.87;40.42;99096.95;1697926;82;20952;-55
2021/05/16 10:37:51;;;;;;;0.78;0.60;;;;;;;23.93;40.36;99089.89;1695693;82;20995;-57
2021/05/16 10:40:29;;;;;;;2.08;0.20;;;;;;;24.00;40.43;99092.28;1696270;82;20934;-54
2021/05/16 10:43:03;;;;;;;0.28;0.23;;;;;;;24.11;39.85;99085.05;1697917;82;20961;-54
2021/05/16 10:45:38;;;;;;;0.90;0.20;;;;;;;24.16;39.63;99080.41;1691856;82;22711;-57
2021/05/16 10:48:12;;;;;;;0.20;0.10;;;;;;;24.21;39.12;99089.01;1694947;82;21073;-56
2021/05/16 10:50:48;;;;;;;0.78;0.20;;;;;;;24.23;38.94;99082.81;1693519;82;20962;-57
2021/05/16 10:53:21;;;;;;;1.27;0.20;;;;;;;24.22;39.04;99083.84;1697802;82;20919;-56
2021/05/16 10:56:14;;;;;;;0.60;0.20;;;;;;;24.17;38.60;99088.97;1697752;82;21443;-54
2021/05/16 10:58:45;;;;;;;0.10;0.10;;;;;;;24.10;39.10;99083.33;1695597;82;21580;-54
2021/05/16 11:01:33;;;;;;;0.20;0.10;;;;;;;24.09;38.51;99074.22;1700516;82;20934;-55
2021/05/16 11:04:01;;;;;;;0.17;0.10;;;;;;;24.12;37.78;99067.00;1697526;82;20972;-58
2021/05/16 11:06:48;;;;;;;1.37;0.20;;;;;;;24.13;37.80;99056.34;1694999;82;21013;-56
2021/05/16 11:09:15;;;;;;;1.02;0.40;;;;;;;24.11;36.91;99051.53;1689227;82;21004;-54
2021/05/16 11:11:53;;;;;;;0.98;0.60;;;;;;;24.11;37.05;99041.05;1693355;82;21689;-57
2021/05/16 11:14:35;;;;;;;1.10;0.30;;;;;;;24.09;36.41;99037.62;1698716;82;21073;-56
2021/05/16 11:17:04;;;;;;;0.80;0.47;;;;;;;23.99;36.36;99037.81;1691323;82;21061;-56
2021/05/16 11:19:34;;;;;;;0.13;0.13;;;;;;;23.98;37.31;99039.39;1641595;83;21650;-52
2021/05/16 11:22:12;;;;;;;0.95;0.65;;;;;;;24.01;36.82;99033.01;1668967;83;21120;-54
2021/05/16 11:24:46;;;;;;;3.25;2.87;;;;;;;24.07;36.99;99027.34;1678110;83;21111;-56
2021/05/16 11:27:25;;;;;;;2.22;0.20;;;;;;;24.10;36.87;99025.59;1708977;82;21158;-57
2021/05/16 11:29:58;;;;;;;1.70;0.20;;;;;;;24.14;36.71;99029.20;1667004;83;21461;-57
2021/05/16 11:32:29;;;;;;;0.23;0.17;;;;;;;24.12;36.68;99024.91;1677863;83;21122;-55
2021/05/16 11:35:15;;;;;;;16.73;15.03;;;;;;;24.10;36.38;99021.47;1706351;82;21007;-54
2021/05/16 11:37:45;;;;;;;7.10;6.40;;;;;;;24.08;36.75;99019.41;1680415;83;21593;-55
2021/05/16 11:40:18;;;;;;;3.20;1.77;;;;;;;24.10;36.92;99020.95;1697090;82;21101;-55
2021/05/16 11:42:45;;;;;;;1.40;0.40;;;;;;;24.08;37.16;99020.27;1688037;82;20953;-56
2021/05/16 11:45:12;;;;;;;2.17;0.95;;;;;;;24.06;36.55;99014.11;1691718;82;20969;-54
2021/05/16 11:47:41;;;;;;;0.60;0.47;;;;;;;24.06;36.64;99011.36;1692690;82;21170;-54